Time;durP1;ratioP1;P1;durP2;ratioP2;P2;SDS_P1;SDS_P2;PMS_P1;PMS_P2;Temp;Humidity;BMP_temperature;BMP_pressure;BME280_temperature;BME280_humidity;BME280_pressure;Samples;Min_cycle;Max_cycle;Signal;HPM_P1;HPM_P2
2021/04/18 00:00:56;;;;;;;;;;;4.60;99.90;;;;;;5028451;28;20293;-67
2021/04/18 00:03:22;;;;;;;;;;;4.70;1.00;;;;;;5013141;28;19959;-67
2021/04/18 00:05:47;;;;;;;;;;;4.70;1.00;;;;;;5028865;28;20019;-68
2021/04/18 00:08:13;;;;;;;;;;;4.70;1.00;;;;;;5025929;28;19913;-67
2021/04/18 00:10:39;;;;;;;;;;;4.80;99.90;;;;;;5029353;28;19924;-68
2021/04/18 00:13:06;;;;;;;;;;;4.80;99.90;;;;;;5030624;28;19920;-68
2021/04/18 00:15:32;;;;;;;;;;;4.90;99.90;;;;;;5028722;28;19935;-67
2021/04/18 00:17:57;;;;;;;;;;;5.00;99.90;;;;;;5012586;28;19924;-68
2021/04/18 00:20:23;;;;;;;;;;;5.00;1.00;;;;;;5029663;28;19914;-68
2021/04/18 00:22:49;;;;;;;;;;;5.00;1.00;;;;;;5012330;28;20281;-67
2021/04/18 00:25:15;;;;;;;;;;;5.10;1.00;;;;;;5030270;28;19914;-67
2021/04/18 00:27:41;;;;;;;;;;;5.10;1.00;;;;;;5030192;28;19929;-68
2021/04/18 00:30:08;;;;;;;;;;;5.20;1.00;;;;;;5026786;28;20673;-68
2021/04/18 00:32:34;;;;;;;;;;;5.20;99.90;;;;;;5027855;28;19961;-68
2021/04/18 00:34:59;;;;;;;;;;;5.20;99.90;;;;;;5022017;28;20005;-68
2021/04/18 00:37:25;;;;;;;;;;;5.30;52.80;;;;;;5026420;28;19913;-68
2021/04/18 00:39:50;;;;;;;;;;;5.30;1.00;;;;;;5013272;28;19925;-66
2021/04/18 00:42:16;;;;;;;;;;;5.30;99.90;;;;;;5018597;28;19975;-68
2021/04/18 00:44:42;;;;;;;;;;;5.20;78.90;;;;;;4999923;28;19917;-68
2021/04/18 00:47:07;;;;;;;;;;;5.20;51.20;;;;;;5026434;28;19913;-68
2021/04/18 00:49:33;;;;;;;;;;;5.20;89.70;;;;;;5026462;28;20266;-67
2021/04/18 00:51:59;;;;;;;;;;;5.20;99.90;;;;;;5026537;28;19929;-67
2021/04/18 00:54:24;;;;;;;;;;;5.10;99.90;;;;;;5030420;28;19909;-67
2021/04/18 00:56:50;;;;;;;;;;;5.20;99.90;;;;;;5028876;28;19996;-68
2021/04/18 00:59:15;;;;;;;;;;;5.10;99.90;;;;;;5020122;28;19921;-67
2021/04/18 01:01:41;;;;;;;;;;;5.20;99.90;;;;;;5023137;28;19971;-67
2021/04/18 01:04:06;;;;;;;;;;;5.20;99.90;;;;;;5012688;28;20012;-67
2021/04/18 01:06:32;;;;;;;;;;;5.20;99.90;;;;;;5024880;28;19919;-67
2021/04/18 01:08:58;;;;;;;;;;;5.20;99.90;;;;;;5016095;28;20314;-68
2021/04/18 01:11:24;;;;;;;;;;;5.20;99.90;;;;;;5025676;28;19917;-68
2021/04/18 01:13:50;;;;;;;;;;;5.20;99.90;;;;;;5016314;28;19940;-68
2021/04/18 01:16:16;;;;;;;;;;;5.20;99.90;;;;;;5018473;28;19928;-67
2021/04/18 01:18:42;;;;;;;;;;;5.30;99.90;;;;;;5024283;28;20067;-67
2021/04/18 01:21:11;;;;;;;;;;;5.30;99.90;;;;;;5025936;28;20401;-67
2021/04/18 01:23:36;;;;;;;;;;;5.30;99.90;;;;;;5026232;28;20381;-68
2021/04/18 01:26:02;;;;;;;;;;;5.40;99.90;;;;;;4996857;28;20068;-67
2021/04/18 01:28:28;;;;;;;;;;;5.40;87.40;;;;;;5015043;28;19913;-67
2021/04/18 01:30:53;;;;;;;;;;;5.40;7.90;;;;;;5019731;28;19920;-67
2021/04/18 01:33:19;;;;;;;;;;;5.40;1.00;;;;;;5026217;28;19921;-67
2021/04/18 01:35:47;;;;;;;;;;;5.40;1.00;;;;;;5018961;28;19920;-67
2021/04/18 01:38:13;;;;;;;;;;;5.50;1.00;;;;;;5022377;28;20421;-67
2021/04/18 01:40:39;;;;;;;;;;;5.50;1.00;;;;;;5019806;28;19918;-67
2021/04/18 01:43:04;;;;;;;;;;;5.50;1.00;;;;;;5017439;28;20016;-68
2021/04/18 01:45:30;;;;;;;;;;;5.50;1.00;;;;;;5019011;28;20405;-67
2021/04/18 01:47:55;;;;;;;;;;;5.50;1.00;;;;;;5020624;28;19925;-67
2021/04/18 01:50:21;;;;;;;;;;;5.40;1.00;;;;;;5016188;28;19917;-67
2021/04/18 01:52:47;;;;;;;;;;;5.40;1.00;;;;;;5023302;28;19917;-67
2021/04/18 01:55:14;;;;;;;;;;;5.50;1.00;;;;;;5020103;28;20016;-67
2021/04/18 01:57:39;;;;;;;;;;;5.50;1.00;;;;;;5018920;28;19924;-68
2021/04/18 02:00:06;;;;;;;;;;;5.50;1.00;;;;;;5014599;28;19917;-67
2021/04/18 02:02:32;;;;;;;;;;;5.50;1.00;;;;;;5013654;28;19932;-67
2021/04/18 02:04:58;;;;;;;;;;;5.50;1.00;;;;;;5013844;28;20303;-67
2021/04/18 02:07:23;;;;;;;;;;;5.50;1.00;;;;;;5016905;28;20012;-67
2021/04/18 02:09:48;;;;;;;;;;;5.50;1.00;;;;;;5015174;28;19914;-67
2021/04/18 02:12:14;;;;;;;;;;;5.50;1.00;;;;;;5019930;28;20016;-67
2021/04/18 02:14:40;;;;;;;;;;;5.40;1.00;;;;;;5017789;28;19971;-67
2021/04/18 02:17:06;;;;;;;;;;;5.40;1.00;;;;;;5020254;28;19991;-67
2021/04/18 02:19:32;;;;;;;;;;;5.40;1.00;;;;;;5019134;28;19913;-67
2021/04/18 02:21:58;;;;;;;;;;;5.40;1.00;;;;;;5020837;28;19917;-68
2021/04/18 02:24:23;;;;;;;;;;;5.40;1.00;;;;;;5023024;28;19982;-68
2021/04/18 02:26:49;;;;;;;;;;;5.40;1.00;;;;;;5024587;28;19948;-68
2021/04/18 02:29:14;;;;;;;;;;;5.40;1.00;;;;;;5031457;28;20282;-68
2021/04/18 02:31:40;;;;;;;;;;;5.50;1.00;;;;;;5016420;28;20381;-68
2021/04/18 02:34:05;;;;;;;;;;;5.50;1.00;;;;;;5021900;28;19932;-68
2021/04/18 02:36:31;;;;;;;;;;;5.40;1.00;;;;;;5022283;28;19913;-68
2021/04/18 02:38:56;;;;;;;;;;;5.40;1.00;;;;;;5029631;28;19975;-68
2021/04/18 02:41:22;;;;;;;;;;;5.40;1.00;;;;;;5023218;28;19933;-67
2021/04/18 02:43:48;;;;;;;;;;;5.40;94.70;;;;;;5027206;28;20167;-67
2021/04/18 02:46:13;;;;;;;;;;;5.40;99.90;;;;;;5017687;28;19983;-68
2021/04/18 02:48:39;;;;;;;;;;;5.30;99.90;;;;;;5014444;28;20025;-68
2021/04/18 02:51:04;;;;;;;;;;;5.30;99.90;;;;;;5011503;28;20574;-68
2021/04/18 02:53:30;;;;;;;;;;;5.30;99.90;;;;;;5025131;28;19917;-67
2021/04/18 02:55:55;;;;;;;;;;;5.30;99.90;;;;;;5019497;28;19924;-68
2021/04/18 02:58:21;;;;;;;;;;;5.30;99.90;;;;;;5025338;28;19939;-68
2021/04/18 03:00:46;;;;;;;;;;;5.30;1.00;;;;;;5020607;28;19924;-67
2021/04/18 03:03:12;;;;;;;;;;;5.30;1.00;;;;;;5020505;28;20417;-67
2021/04/18 03:05:38;;;;;;;;;;;5.30;1.00;;;;;;5032309;28;19979;-68
2021/04/18 03:08:03;;;;;;;;;;;5.30;1.00;;;;;;5030672;28;19924;-67
2021/04/18 03:10:29;;;;;;;;;;;5.30;1.00;;;;;;5029321;28;19923;-68
2021/04/18 03:12:57;;;;;;;;;;;5.30;1.00;;;;;;5031058;28;20288;-67
2021/04/18 03:15:24;;;;;;;;;;;5.30;1.00;;;;;;5029253;28;20731;-68
2021/04/18 03:17:49;;;;;;;;;;;5.30;1.00;;;;;;5030539;28;20014;-67
2021/04/18 03:20:16;;;;;;;;;;;5.30;1.00;;;;;;5029833;28;20408;-68
2021/04/18 03:22:41;;;;;;;;;;;5.20;1.00;;;;;;5029196;28;19920;-67
2021/04/18 03:25:07;;;;;;;;;;;5.20;1.00;;;;;;5022101;28;19913;-68
2021/04/18 03:27:33;;;;;;;;;;;5.20;99.90;;;;;;5018938;28;20370;-67
2021/04/18 03:29:58;;;;;;;;;;;5.20;99.90;;;;;;5014356;28;19917;-67
2021/04/18 03:32:24;;;;;;;;;;;5.20;99.90;;;;;;5019124;28;19917;-67
2021/04/18 03:34:50;;;;;;;;;;;5.20;99.90;;;;;;5030219;28;19913;-67
2021/04/18 03:37:15;;;;;;;;;;;5.20;1.00;;;;;;5013491;28;19921;-66
2021/04/18 03:39:41;;;;;;;;;;;5.20;99.90;;;;;;5020540;28;19913;-67
2021/04/18 03:44:35;;;;;;;;;;;5.20;99.90;;;;;;5018740;28;19933;-67
2021/04/18 03:47:01;;;;;;;;;;;5.20;99.90;;;;;;5024122;28;19914;-67
2021/04/18 03:49:26;;;;;;;;;;;5.20;99.90;;;;;;5007104;28;19943;-67
2021/04/18 03:51:52;;;;;;;;;;;5.20;1.00;;;;;;5019323;28;19925;-67
2021/04/18 03:54:19;;;;;;;;;;;5.30;99.90;;;;;;5020153;28;20378;-66
2021/04/18 03:56:44;;;;;;;;;;;5.30;99.90;;;;;;5012815;28;19980;-67
2021/04/18 03:59:10;;;;;;;;;;;5.30;1.00;;;;;;5025509;28;19933;-67
2021/04/18 04:01:35;;;;;;;;;;;5.30;99.90;;;;;;5020256;28;19913;-67
2021/04/18 04:04:01;;;;;;;;;;;5.30;99.90;;;;;;5026578;28;20308;-68
2021/04/18 04:06:26;;;;;;;;;;;5.30;99.90;;;;;;5014347;28;20000;-67
2021/04/18 04:08:52;;;;;;;;;;;5.30;99.90;;;;;;5027261;28;19923;-66
2021/04/18 04:11:17;;;;;;;;;;;5.30;99.90;;;;;;5018584;28;19956;-68
2021/04/18 04:13:43;;;;;;;;;;;5.30;99.90;;;;;;5025704;28;19917;-67
2021/04/18 04:16:08;;;;;;;;;;;5.30;99.90;;;;;;5024470;28;19917;-66
2021/04/18 04:18:34;;;;;;;;;;;5.30;99.90;;;;;;5022346;28;19917;-67
2021/04/18 04:20:59;;;;;;;;;;;5.20;99.90;;;;;;5023346;28;20081;-68
2021/04/18 04:23:25;;;;;;;;;;;5.20;1.00;;;;;;5019435;28;19917;-68
2021/04/18 04:25:50;;;;;;;;;;;5.20;1.00;;;;;;5020808;28;19913;-68
2021/04/18 04:28:16;;;;;;;;;;;5.20;1.00;;;;;;5025210;28;19913;-69
2021/04/18 04:30:41;;;;;;;;;;;5.30;1.00;;;;;;5020156;28;19913;-68
2021/04/18 04:33:07;;;;;;;;;;;5.20;1.00;;;;;;5017325;28;19927;-67
2021/04/18 04:35:32;;;;;;;;;;;5.20;1.00;;;;;;5020868;28;19917;-67
2021/04/18 04:37:58;;;;;;;;;;;5.20;9.60;;;;;;5022691;28;19921;-67
2021/04/18 04:40:24;;;;;;;;;;;5.20;1.00;;;;;;5017828;28;19929;-67
2021/04/18 04:42:49;;;;;;;;;;;5.20;1.00;;;;;;5022047;28;20034;-67
2021/04/18 04:45:15;;;;;;;;;;;5.30;1.00;;;;;;5019813;28;19947;-66
2021/04/18 04:47:40;;;;;;;;;;;5.20;1.00;;;;;;5020579;28;19921;-66
2021/04/18 04:50:06;;;;;;;;;;;5.20;1.00;;;;;;5022729;28;19924;-66
2021/04/18 04:52:32;;;;;;;;;;;5.20;1.00;;;;;;5022231;28;19917;-66
2021/04/18 04:54:58;;;;;;;;;;;5.20;4.60;;;;;;5017538;28;20359;-68
2021/04/18 04:57:23;;;;;;;;;;;5.20;99.90;;;;;;5023637;28;19924;-67
2021/04/18 04:59:49;;;;;;;;;;;5.20;99.90;;;;;;5019976;28;19913;-66
2021/04/18 05:02:14;;;;;;;;;;;5.20;99.90;;;;;;5021756;28;20359;-65
2021/04/18 05:04:40;;;;;;;;;;;5.20;99.90;;;;;;5023650;28;19913;-68
2021/04/18 05:07:05;;;;;;;;;;;5.20;99.90;;;;;;5019331;28;19924;-68
2021/04/18 05:09:31;;;;;;;;;;;5.20;99.90;;;;;;5023718;28;19913;-67
2021/04/18 05:11:56;;;;;;;;;;;5.30;99.90;;;;;;5013402;28;19917;-68
2021/04/18 05:14:22;;;;;;;;;;;5.40;99.90;;;;;;5021311;28;19924;-66
2021/04/18 05:16:47;;;;;;;;;;;5.40;99.90;;;;;;4998627;28;19945;-67
2021/04/18 05:19:13;;;;;;;;;;;5.40;99.90;;;;;;5010649;28;19921;-66
2021/04/18 05:21:38;;;;;;;;;;;5.40;11.70;;;;;;5017319;28;19917;-68
2021/04/18 05:24:05;;;;;;;;;;;5.40;1.00;;;;;;5015368;28;19917;-67
2021/04/18 05:26:30;;;;;;;;;;;5.40;1.00;;;;;;5023989;28;20293;-68
2021/04/18 05:28:56;;;;;;;;;;;5.40;1.00;;;;;;5012033;28;19914;-68
2021/04/18 05:31:22;;;;;;;;;;;5.40;34.00;;;;;;5011337;28;19920;-67
2021/04/18 05:33:47;;;;;;;;;;;5.40;99.90;;;;;;5020287;28;19940;-67
2021/04/18 05:36:13;;;;;;;;;;;5.40;99.90;;;;;;5014930;28;19913;-67
2021/04/18 05:38:38;;;;;;;;;;;5.40;99.90;;;;;;5019123;28;19924;-68
2021/04/18 05:41:04;;;;;;;;;;;5.50;54.50;;;;;;5010158;28;19918;-68
2021/04/18 05:43:30;;;;;;;;;;;5.60;1.00;;;;;;5025362;28;19917;-66
2021/04/18 05:45:55;;;;;;;;;;;5.70;1.00;;;;;;5017784;28;19996;-68
2021/04/18 05:48:21;;;;;;;;;;;5.70;99.90;;;;;;5020300;28;20036;-67
2021/04/18 05:50:47;;;;;;;;;;;5.70;1.00;;;;;;5018012;28;19925;-68
2021/04/18 05:53:13;;;;;;;;;;;5.70;1.00;;;;;;5014836;28;19994;-67
2021/04/18 05:55:38;;;;;;;;;;;5.80;1.00;;;;;;5023789;28;19913;-67
2021/04/18 05:58:04;;;;;;;;;;;5.90;1.00;;;;;;5017334;28;20060;-68
2021/04/18 06:00:30;;;;;;;;;;;5.80;99.90;;;;;;5012892;28;19913;-68
2021/04/18 06:02:55;;;;;;;;;;;5.90;99.90;;;;;;5024377;28;20282;-67
2021/04/18 06:05:21;;;;;;;;;;;6.10;99.90;;;;;;5017276;28;19924;-66
2021/04/18 06:07:46;;;;;;;;;;;6.20;1.00;;;;;;5019176;28;20323;-66
2021/04/18 06:10:12;;;;;;;;;;;6.20;1.00;;;;;;5013956;28;19920;-67
2021/04/18 06:12:38;;;;;;;;;;;6.30;1.00;;;;;;5024885;28;19921;-68
2021/04/18 06:15:05;;;;;;;;;;;6.40;1.00;;;;;;5019785;28;20828;-66
2021/04/18 06:17:30;;;;;;;;;;;6.50;99.90;;;;;;5013290;28;19924;-67
2021/04/18 06:19:56;;;;;;;;;;;6.60;99.90;;;;;;5023922;28;19913;-67
2021/04/18 06:22:21;;;;;;;;;;;6.70;99.90;;;;;;5021736;28;20484;-67
2021/04/18 06:24:47;;;;;;;;;;;6.70;15.40;;;;;;5015053;28;19917;-68
2021/04/18 06:27:12;;;;;;;;;;;6.70;1.00;;;;;;5012350;28;19918;-68
2021/04/18 06:29:38;;;;;;;;;;;6.80;1.00;;;;;;5015895;28;19978;-67
2021/04/18 06:32:03;;;;;;;;;;;6.80;1.00;;;;;;5014133;28;19963;-66
2021/04/18 06:34:29;;;;;;;;;;;7.00;1.00;;;;;;5018548;28;19917;-67
2021/04/18 06:36:54;;;;;;;;;;;7.10;1.00;;;;;;5025954;28;19914;-67
2021/04/18 06:39:20;;;;;;;;;;;7.20;1.00;;;;;;5015566;28;19917;-67
2021/04/18 06:41:53;;;;;;;;;;;7.30;1.00;;;;;;5016719;28;20278;-67
2021/04/18 06:44:19;;;;;;;;;;;7.30;1.00;;;;;;5012920;28;19944;-66
2021/04/18 06:46:45;;;;;;;;;;;7.50;1.00;;;;;;5008308;28;20023;-68
2021/04/18 06:49:10;;;;;;;;;;;7.50;99.90;;;;;;5013099;28;19925;-67
2021/04/18 06:51:37;;;;;;;;;;;7.50;99.90;;;;;;5022743;28;20067;-68
2021/04/18 06:54:02;;;;;;;;;;;7.60;99.90;;;;;;5026204;28;19918;-67
2021/04/18 06:56:28;;;;;;;;;;;7.60;99.90;;;;;;5016997;28;19922;-67
2021/04/18 06:58:57;;;;;;;;;;;7.60;99.90;;;;;;5019318;28;19921;-68
2021/04/18 07:01:23;;;;;;;;;;;7.70;99.90;;;;;;5015133;28;19924;-67
2021/04/18 07:04:06;;;;;;;;;;;7.90;99.90;;;;;;5028252;28;19914;-68
2021/04/18 07:06:39;;;;;;;;;;;8.20;14.40;;;;;;5016863;28;19920;-68
2021/04/18 07:09:05;;;;;;;;;;;8.40;1.00;;;;;;5026743;28;20023;-66
2021/04/18 07:11:49;;;;;;;;;;;8.70;1.00;;;;;;5013850;28;20059;-66
2021/04/18 07:14:18;;;;;;;;;;;8.70;1.00;;;;;;5020250;28;20493;-66
2021/04/18 07:16:44;;;;;;;;;;;8.80;1.00;;;;;;5024994;28;19913;-65
2021/04/18 07:19:17;;;;;;;;;;;9.00;1.00;;;;;;5026463;28;20294;-67
2021/04/18 07:21:44;;;;;;;;;;;9.30;1.00;;;;;;5016913;28;20346;-67
2021/04/18 07:24:09;;;;;;;;;;;9.20;1.00;;;;;;5031117;28;19989;-66
2021/04/18 07:26:35;;;;;;;;;;;9.20;1.00;;;;;;5025114;28;20583;-67
2021/04/18 07:29:11;;;;;;;;;;;9.20;1.00;;;;;;5011464;28;19971;-67
2021/04/18 07:31:37;;;;;;;;;;;9.40;1.00;;;;;;5009977;28;19917;-68
2021/04/18 07:34:04;;;;;;;;;;;9.50;1.00;;;;;;5011400;28;19914;-67
2021/04/18 07:36:30;;;;;;;;;;;9.60;1.00;;;;;;5014916;28;19924;-68
2021/04/18 07:38:55;;;;;;;;;;;9.90;1.00;;;;;;5031237;28;20705;-67
2021/04/18 07:41:22;;;;;;;;;;;10.30;1.00;;;;;;5030523;28;19956;-66
2021/04/18 07:43:48;;;;;;;;;;;10.70;1.00;;;;;;5025176;28;20429;-67
2021/04/18 07:46:14;;;;;;;;;;;10.90;1.00;;;;;;5011708;28;20314;-67
2021/04/18 07:48:41;;;;;;;;;;;10.90;1.00;;;;;;5022367;28;19913;-67
2021/04/18 07:51:07;;;;;;;;;;;;;;;;;;5021221;28;19917;-67
2021/04/18 07:53:33;;;;;;;;;;;10.70;99.90;;;;;;5029166;28;19963;-68
2021/04/18 07:55:58;;;;;;;;;;;10.60;99.90;;;;;;5022627;28;19957;-67
2021/04/18 07:58:24;;;;;;;;;;;10.60;99.90;;;;;;5027548;28;20016;-67
2021/04/18 08:00:50;;;;;;;;;;;10.50;99.90;;;;;;5019426;28;19924;-67
2021/04/18 08:03:16;;;;;;;;;;;10.40;99.90;;;;;;5017626;28;19975;-67
2021/04/18 08:05:42;;;;;;;;;;;10.10;99.90;;;;;;5027172;28;19956;-67
2021/04/18 08:08:10;;;;;;;;;;;10.10;99.90;;;;;;5011838;28;19921;-67
2021/04/18 08:10:35;;;;;;;;;;;10.00;99.90;;;;;;5023573;28;20346;-67
2021/04/18 08:13:04;;;;;;;;;;;10.00;99.90;;;;;;5019644;28;19921;-68
2021/04/18 08:15:30;;;;;;;;;;;10.10;99.90;;;;;;5016183;28;19921;-67
2021/04/18 08:18:05;;;;;;;;;;;10.20;99.90;;;;;;5022118;28;20374;-66
2021/04/18 08:20:32;;;;;;;;;;;10.20;99.90;;;;;;5026194;28;20012;-66
2021/04/18 08:23:03;;;;;;;;;;;10.30;99.90;;;;;;5013378;28;19914;-67
2021/04/18 08:25:28;;;;;;;;;;;10.20;99.90;;;;;;5020835;28;19972;-67
2021/04/18 08:28:06;;;;;;;;;;;10.20;99.90;;;;;;5019417;28;20366;-66
2021/04/18 08:30:51;;;;;;;;;;;10.10;99.90;;;;;;5016907;28;20015;-68
2021/04/18 08:33:36;;;;;;;;;;;10.20;99.90;;;;;;5019594;28;20376;-69
2021/04/18 08:36:10;;;;;;;;;;;10.20;99.90;;;;;;5021875;28;19972;-67
2021/04/18 08:38:36;;;;;;;;;;;10.10;99.90;;;;;;5017950;28;19940;-66
2021/04/18 08:41:05;;;;;;;;;;;10.00;99.90;;;;;;5011795;28;19962;-69
2021/04/18 08:43:31;;;;;;;;;;;9.80;99.90;;;;;;5016403;28;19963;-68
2021/04/18 08:45:57;;;;;;;;;;;9.70;99.90;;;;;;5010025;28;20329;-68
2021/04/18 08:48:22;;;;;;;;;;;9.60;99.90;;;;;;5018396;28;19921;-66
2021/04/18 08:50:52;;;;;;;;;;;9.50;99.90;;;;;;4996591;28;19917;-68
2021/04/18 08:53:18;;;;;;;;;;;9.40;99.90;;;;;;5028804;28;19921;-69
2021/04/18 08:55:53;;;;;;;;;;;9.50;99.90;;;;;;5027167;28;19913;-68
2021/04/18 08:58:32;;;;;;;;;;;9.50;99.90;;;;;;5026937;28;19921;-69
2021/04/18 09:01:03;;;;;;;;;;;9.60;99.90;;;;;;5020553;28;19956;-68
2021/04/18 09:03:29;;;;;;;;;;;9.70;99.90;;;;;;5003849;28;19920;-67
2021/04/18 09:06:01;;;;;;;;;;;9.80;99.90;;;;;;5020801;28;19913;-68
2021/04/18 09:08:27;;;;;;;;;;;10.10;99.90;;;;;;5014224;28;20012;-69
2021/04/18 09:11:02;;;;;;;;;;;10.60;99.90;;;;;;5022402;28;20426;-67
2021/04/18 09:13:27;;;;;;;;;;;10.70;99.90;;;;;;5020106;28;20711;-67
2021/04/18 09:15:53;;;;;;;;;;;10.80;99.90;;;;;;5011231;28;19940;-66
2021/04/18 09:18:23;;;;;;;;;;;10.80;99.90;;;;;;5018104;28;19929;-65
2021/04/18 09:21:08;;;;;;;;;;;10.80;99.90;;;;;;5019211;28;19959;-67
2021/04/18 09:23:53;;;;;;;;;;;11.00;99.90;;;;;;5025524;28;20420;-67
2021/04/18 09:26:19;;;;;;;;;;;11.20;99.90;;;;;;5023794;28;19922;-66
2021/04/18 09:29:03;;;;;;;;;;;11.30;99.90;;;;;;5009636;28;19936;-67
2021/04/18 09:31:28;;;;;;;;;;;11.20;99.90;;;;;;5020626;28;19967;-66
2021/04/18 09:34:04;;;;;;;;;;;11.10;99.90;;;;;;5015823;28;20013;-67
2021/04/18 09:36:30;;;;;;;;;;;10.80;99.90;;;;;;5019324;28;20542;-68
2021/04/18 09:38:56;;;;;;;;;;;10.60;99.90;;;;;;5024639;28;19917;-68
2021/04/18 09:41:22;;;;;;;;;;;10.50;99.90;;;;;;4997628;28;19920;-69
2021/04/18 09:44:06;;;;;;;;;;;10.30;99.90;;;;;;5019633;28;19960;-68
2021/04/18 09:46:44;;;;;;;;;;;10.00;99.90;;;;;;5015174;28;19918;-68
2021/04/18 09:49:09;;;;;;;;;;;9.70;99.90;;;;;;5012266;28;19927;-68
2021/04/18 09:51:50;;;;;;;;;;;9.50;99.90;;;;;;5017195;28;19917;-67
2021/04/18 09:54:24;;;;;;;;;;;9.40;99.90;;;;;;5010754;28;19925;-69
2021/04/18 09:57:10;;;;;;;;;;;9.30;99.90;;;;;;5027951;28;20350;-68
2021/04/18 09:59:36;;;;;;;;;;;9.40;99.90;;;;;;5010236;28;19984;-68
2021/04/18 10:02:11;;;;;;;;;;;9.70;99.90;;;;;;5025098;28;19913;-66
2021/04/18 10:04:37;;;;;;;;;;;9.80;99.90;;;;;;5021383;28;19916;-67
2021/04/18 10:07:02;;;;;;;;;;;9.80;99.90;;;;;;5019698;28;19920;-65
2021/04/18 10:09:47;;;;;;;;;;;9.70;99.90;;;;;;5012395;28;19924;-65
2021/04/18 10:12:13;;;;;;;;;;;9.80;99.90;;;;;;5019229;28;19928;-66
2021/04/18 10:14:38;;;;;;;;;;;9.90;99.90;;;;;;5016697;28;19921;-67
2021/04/18 10:17:04;;;;;;;;;;;10.10;99.90;;;;;;5024903;28;20039;-67
2021/04/18 10:19:29;;;;;;;;;;;10.00;99.90;;;;;;5011248;28;20009;-66
2021/04/18 10:22:01;;;;;;;;;;;10.00;99.90;;;;;;5018259;28;19963;-66
2021/04/18 10:24:34;;;;;;;;;;;10.00;99.90;;;;;;5020141;28;19952;-67
2021/04/18 10:27:04;;;;;;;;;;;10.10;99.90;;;;;;4994128;28;19928;-64
2021/04/18 10:29:30;;;;;;;;;;;10.10;99.90;;;;;;5013184;28;19944;-67
2021/04/18 10:31:56;;;;;;;;;;;10.20;99.90;;;;;;5023378;28;19913;-67
2021/04/18 10:34:21;;;;;;;;;;;10.50;99.90;;;;;;5017266;28;20348;-67
2021/04/18 10:36:47;;;;;;;;;;;10.90;99.90;;;;;;5021362;28;20354;-67
2021/04/18 10:39:16;;;;;;;;;;;11.10;99.90;;;;;;5028626;28;19992;-66
2021/04/18 10:41:42;;;;;;;;;;;11.50;99.90;;;;;;5002955;28;19953;-62
2021/04/18 10:44:07;;;;;;;;;;;12.00;99.90;;;;;;5020886;28;20047;-67
2021/04/18 10:46:33;;;;;;;;;;;12.10;99.90;;;;;;5028111;28;20338;-67
2021/04/18 10:48:58;;;;;;;;;;;11.90;99.90;;;;;;5038991;28;19916;-67
2021/04/18 10:51:24;;;;;;;;;;;11.90;99.90;;;;;;5028649;28;19994;-66
2021/04/18 10:53:49;;;;;;;;;;;11.90;99.90;;;;;;5026684;28;20047;-66
2021/04/18 10:56:15;;;;;;;;;;;12.00;99.90;;;;;;5026057;28;19940;-67
2021/04/18 10:58:40;;;;;;;;;;;12.00;99.90;;;;;;5022562;28;19921;-66
2021/04/18 11:01:06;;;;;;;;;;;11.90;99.90;;;;;;5029873;28;19924;-64
2021/04/18 11:03:31;;;;;;;;;;;11.70;99.90;;;;;;5035644;28;19913;-67
2021/04/18 11:05:57;;;;;;;;;;;11.10;99.90;;;;;;4995381;28;19920;-67
2021/04/18 11:08:22;;;;;;;;;;;10.50;99.90;;;;;;5030063;28;19913;-66
2021/04/18 11:10:49;;;;;;;;;;;10.20;99.90;;;;;;5002516;28;19992;-68
2021/04/18 11:13:14;;;;;;;;;;;10.00;99.90;;;;;;5039317;28;19917;-64
2021/04/18 11:15:40;;;;;;;;;;;9.90;99.90;;;;;;5042580;28;19975;-68
2021/04/18 11:18:09;;;;;;;;;;;9.60;99.90;;;;;;5020240;28;19913;-66
2021/04/18 11:20:35;;;;;;;;;;;9.50;99.90;;;;;;5025268;28;20026;-69
2021/04/18 11:23:00;;;;;;;;;;;9.50;99.90;;;;;;5006787;28;19923;-67
2021/04/18 11:25:26;;;;;;;;;;;9.40;99.90;;;;;;5023289;28;20012;-67
2021/04/18 11:27:51;;;;;;;;;;;9.40;99.90;;;;;;5027664;28;19936;-66
2021/04/18 11:30:17;;;;;;;;;;;9.30;99.90;;;;;;5024484;28;19924;-66
2021/04/18 11:32:43;;;;;;;;;;;9.30;99.90;;;;;;5002862;28;19922;-65
2021/04/18 11:35:09;;;;;;;;;;;9.30;99.90;;;;;;5006632;28;20393;-67
2021/04/18 11:37:35;;;;;;;;;;;9.20;99.90;;;;;;5015573;28;20297;-68
2021/04/18 11:40:00;;;;;;;;;;;9.20;99.90;;;;;;5008534;28;19913;-66
2021/04/18 11:42:26;;;;;;;;;;;9.10;99.90;;;;;;5009995;28;20337;-66
2021/04/18 11:44:52;;;;;;;;;;;9.00;99.90;;;;;;5018607;28;20343;-67
2021/04/18 11:47:18;;;;;;;;;;;8.90;99.90;;;;;;4999586;28;19959;-67
2021/04/18 11:49:44;;;;;;;;;;;8.90;99.90;;;;;;5028872;28;20309;-65
2021/04/18 11:52:10;;;;;;;;;;;8.90;99.90;;;;;;5017696;28;19961;-65
2021/04/18 11:54:35;;;;;;;;;;;8.80;99.90;;;;;;5029180;28;19988;-67
2021/04/18 11:57:01;;;;;;;;;;;8.80;99.90;;;;;;5025695;28;20043;-68
2021/04/18 11:59:26;;;;;;;;;;;8.80;99.90;;;;;;5026916;28;19920;-66
2021/04/18 12:01:52;;;;;;;;;;;8.80;99.90;;;;;;5020506;28;20259;-66
2021/04/18 12:04:17;;;;;;;;;;;8.80;99.90;;;;;;5028244;28;20000;-69
2021/04/18 12:06:43;;;;;;;;;;;8.90;99.90;;;;;;5029169;28;20459;-64
2021/04/18 12:09:08;;;;;;;;;;;9.00;99.90;;;;;;5030612;28;19943;-65
2021/04/18 12:11:34;;;;;;;;;;;9.10;99.90;;;;;;5030875;28;19920;-67
2021/04/18 12:14:00;;;;;;;;;;;9.20;99.90;;;;;;5031199;28;19948;-68
2021/04/18 12:16:26;;;;;;;;;;;9.40;99.90;;;;;;5029841;28;19909;-67
2021/04/18 12:18:51;;;;;;;;;;;9.60;99.90;;;;;;5030474;28;19909;-66
2021/04/18 12:21:17;;;;;;;;;;;9.90;99.90;;;;;;5030223;28;20422;-65
2021/04/18 12:23:42;;;;;;;;;;;10.10;99.90;;;;;;5030767;28;20003;-67
2021/04/18 12:26:08;;;;;;;;;;;10.30;99.90;;;;;;5029639;28;19913;-66
2021/04/18 12:28:33;;;;;;;;;;;10.60;99.90;;;;;;5030645;28;19916;-65
2021/04/18 12:30:59;;;;;;;;;;;10.70;99.90;;;;;;5027945;28;19978;-66
2021/04/18 12:33:25;;;;;;;;;;;10.60;99.90;;;;;;5030124;28;20381;-66
2021/04/18 12:35:50;;;;;;;;;;;10.60;99.90;;;;;;5029100;28;19913;-68
2021/04/18 12:38:16;;;;;;;;;;;10.70;99.90;;;;;;5030708;28;19919;-66
2021/04/18 12:40:41;;;;;;;;;;;10.90;99.90;;;;;;5029242;28;19954;-66
2021/04/18 12:43:07;;;;;;;;;;;11.00;99.90;;;;;;5030188;28;19964;-67
2021/04/18 12:45:32;;;;;;;;;;;11.20;99.90;;;;;;5028243;28;19964;-66
2021/04/18 12:47:58;;;;;;;;;;;11.50;99.90;;;;;;5030067;28;19967;-67
2021/04/18 12:50:23;;;;;;;;;;;11.90;99.90;;;;;;5028934;28;20358;-67
2021/04/18 12:52:49;;;;;;;;;;;12.30;99.90;;;;;;5030360;28;19971;-67
2021/04/18 12:55:15;;;;;;;;;;;12.50;99.90;;;;;;5030050;28;19909;-65
2021/04/18 12:57:40;;;;;;;;;;;12.40;99.90;;;;;;5029906;28;19913;-67
2021/04/18 13:00:10;;;;;;;;;;;12.40;99.90;;;;;;5028385;28;19913;-68
2021/04/18 13:02:35;;;;;;;;;;;12.10;99.90;;;;;;5030025;28;20325;-68
2021/04/18 13:05:02;;;;;;;;;;;11.90;99.90;;;;;;5030046;28;20016;-66
2021/04/18 13:07:31;;;;;;;;;;;11.80;99.90;;;;;;5030092;28;20350;-65
2021/04/18 13:09:57;;;;;;;;;;;11.70;99.90;;;;;;5028619;28;19916;-68
2021/04/18 13:12:23;;;;;;;;;;;11.50;99.90;;;;;;5028550;28;19955;-66
2021/04/18 13:14:49;;;;;;;;;;;11.40;99.90;;;;;;5027020;28;19948;-68
2021/04/18 13:17:15;;;;;;;;;;;11.30;99.90;;;;;;5010128;28;20367;-68
2021/04/18 13:19:40;;;;;;;;;;;11.20;99.90;;;;;;5009174;28;19913;-67
2021/04/18 13:22:06;;;;;;;;;;;11.20;99.90;;;;;;5009970;28;19914;-66
2021/04/18 13:24:31;;;;;;;;;;;11.00;99.90;;;;;;5009713;28;20060;-68
2021/04/18 13:26:57;;;;;;;;;;;11.00;99.90;;;;;;5009897;28;19909;-67
2021/04/18 13:29:22;;;;;;;;;;;10.90;99.90;;;;;;5008626;28;19963;-68
2021/04/18 13:31:48;;;;;;;;;;;10.80;99.90;;;;;;5010207;28;19917;-67
2021/04/18 13:34:13;;;;;;;;;;;10.80;99.90;;;;;;5013452;28;19928;-67
2021/04/18 13:36:39;;;;;;;;;;;10.90;99.90;;;;;;5017977;28;19921;-64
2021/04/18 13:39:05;;;;;;;;;;;11.00;99.90;;;;;;5020317;28;20561;-69
2021/04/18 13:41:30;;;;;;;;;;;11.00;99.90;;;;;;5014934;28;19909;-67
2021/04/18 13:43:56;;;;;;;;;;;11.00;99.90;;;;;;5027273;28;19917;-67
2021/04/18 13:46:21;;;;;;;;;;;11.20;99.90;;;;;;5025790;28;19913;-69
2021/04/18 13:48:47;;;;;;;;;;;11.20;99.90;;;;;;5011753;28;19988;-66
2021/04/18 13:51:13;;;;;;;;;;;11.30;99.90;;;;;;5028588;28;19915;-66
2021/04/18 13:53:38;;;;;;;;;;;11.20;99.90;;;;;;5028998;28;19921;-67
2021/04/18 13:56:04;;;;;;;;;;;11.20;99.90;;;;;;5028992;28;19941;-68
2021/04/18 13:58:29;;;;;;;;;;;11.00;99.90;;;;;;5029384;28;19917;-65
2021/04/18 14:00:55;;;;;;;;;;;11.00;99.90;;;;;;5026601;28;19960;-67
2021/04/18 14:03:20;;;;;;;;;;;10.80;99.90;;;;;;5029393;28;19940;-68
2021/04/18 14:05:46;;;;;;;;;;;10.70;99.90;;;;;;5011344;28;19963;-66
2021/04/18 14:08:11;;;;;;;;;;;10.90;99.90;;;;;;5029478;28;19978;-67
2021/04/18 14:10:37;;;;;;;;;;;11.00;99.90;;;;;;5032354;28;20286;-66
2021/04/18 14:13:02;;;;;;;;;;;11.30;99.90;;;;;;5033172;28;19956;-67
2021/04/18 14:15:29;;;;;;;;;;;11.40;99.90;;;;;;5031382;28;19978;-66
2021/04/18 14:17:54;;;;;;;;;;;11.70;99.90;;;;;;5033250;28;19909;-66
2021/04/18 14:20:20;;;;;;;;;;;11.90;99.90;;;;;;5032128;28;20063;-66
2021/04/18 14:22:45;;;;;;;;;;;12.10;99.90;;;;;;5033215;28;19977;-67
2021/04/18 14:25:11;;;;;;;;;;;12.20;99.90;;;;;;5033139;28;19932;-68
2021/04/18 14:27:37;;;;;;;;;;;12.20;99.90;;;;;;5033391;28;20616;-67
2021/04/18 14:30:04;;;;;;;;;;;12.20;99.90;;;;;;5031005;28;19920;-68